sensor_id;sensor_type;location;lat;lon;timestamp;temperature;humidity
27540;DHT22;15906;52.046;4.724;2023-07-13T00:02:23;17.60;99.90
27540;DHT22;15906;52.046;4.724;2023-07-13T00:04:48;17.40;99.90
27540;DHT22;15906;52.046;4.724;2023-07-13T00:07:14;17.40;99.90
27540;DHT22;15906;52.046;4.724;2023-07-13T00:09:40;17.40;99.90
27540;DHT22;15906;52.046;4.724;2023-07-13T00:14:49;17.30;99.90
27540;DHT22;15906;52.046;4.724;2023-07-13T00:17:15;17.30;99.90
27540;DHT22;15906;52.046;4.724;2023-07-13T00:19:41;17.20;99.90
27540;DHT22;15906;52.046;4.724;2023-07-13T00:22:06;17.20;99.90
27540;DHT22;15906;52.046;4.724;2023-07-13T00:24:32;17.20;99.90
27540;DHT22;15906;52.046;4.724;2023-07-13T00:26:57;17.10;99.90
27540;DHT22;15906;52.046;4.724;2023-07-13T00:29:25;17.20;99.90
27540;DHT22;15906;52.046;4.724;2023-07-13T00:31:51;17.20;99.90
27540;DHT22;15906;52.046;4.724;2023-07-13T00:34:16;17.20;99.90
27540;DHT22;15906;52.046;4.724;2023-07-13T00:36:42;17.10;99.90
27540;DHT22;15906;52.046;4.724;2023-07-13T00:39:08;17.20;99.90
27540;DHT22;15906;52.046;4.724;2023-07-13T00:41:34;17.20;99.90
27540;DHT22;15906;52.046;4.724;2023-07-13T00:43:59;17.30;99.90
27540;DHT22;15906;52.046;4.724;2023-07-13T00:46:28;17.20;99.90
27540;DHT22;15906;52.046;4.724;2023-07-13T00:48:57;17.40;99.90
27540;DHT22;15906;52.046;4.724;2023-07-13T00:51:32;17.10;99.90
27540;DHT22;15906;52.046;4.724;2023-07-13T00:54:05;17.30;99.90
27540;DHT22;15906;52.046;4.724;2023-07-13T00:56:33;17.30;99.90
27540;DHT22;15906;52.046;4.724;2023-07-13T00:58:59;17.30;99.90
27540;DHT22;15906;52.046;4.724;2023-07-13T01:01:25;17.10;99.90
27540;DHT22;15906;52.046;4.724;2023-07-13T01:03:50;17.10;99.90
27540;DHT22;15906;52.046;4.724;2023-07-13T01:06:16;17.10;99.90
27540;DHT22;15906;52.046;4.724;2023-07-13T01:08:43;17.20;99.90
27540;DHT22;15906;52.046;4.724;2023-07-13T01:11:08;17.20;99.90
27540;DHT22;15906;52.046;4.724;2023-07-13T01:13:34;17.10;99.90
27540;DHT22;15906;52.046;4.724;2023-07-13T01:16:04;17.20;99.90
27540;DHT22;15906;52.046;4.724;2023-07-13T01:18:31;17.10;99.90
27540;DHT22;15906;52.046;4.724;2023-07-13T01:21:03;17.10;99.90
27540;DHT22;15906;52.046;4.724;2023-07-13T01:23:29;17.00;99.90
27540;DHT22;15906;52.046;4.724;2023-07-13T01:25:56;17.00;99.90
27540;DHT22;15906;52.046;4.724;2023-07-13T01:28:23;16.80;99.90
27540;DHT22;15906;52.046;4.724;2023-07-13T01:30:52;16.80;99.90
27540;DHT22;15906;52.046;4.724;2023-07-13T01:33:18;16.90;99.90
27540;DHT22;15906;52.046;4.724;2023-07-13T01:35:45;16.80;99.90
27540;DHT22;15906;52.046;4.724;2023-07-13T01:38:13;16.80;99.90
27540;DHT22;15906;52.046;4.724;2023-07-13T01:40:39;16.80;99.90
27540;DHT22;15906;52.046;4.724;2023-07-13T01:43:05;16.80;99.90
27540;DHT22;15906;52.046;4.724;2023-07-13T01:45:30;16.90;99.90
27540;DHT22;15906;52.046;4.724;2023-07-13T01:47:56;16.70;99.90
27540;DHT22;15906;52.046;4.724;2023-07-13T01:50:21;16.80;99.90
27540;DHT22;15906;52.046;4.724;2023-07-13T01:52:47;16.70;99.90
27540;DHT22;15906;52.046;4.724;2023-07-13T01:55:12;16.60;99.90
27540;DHT22;15906;52.046;4.724;2023-07-13T01:57:39;16.70;99.90
27540;DHT22;15906;52.046;4.724;2023-07-13T02:00:06;16.60;99.90
27540;DHT22;15906;52.046;4.724;2023-07-13T02:02:32;16.70;99.90
27540;DHT22;15906;52.046;4.724;2023-07-13T02:04:58;16.70;99.90
27540;DHT22;15906;52.046;4.724;2023-07-13T02:07:23;16.70;99.90
27540;DHT22;15906;52.046;4.724;2023-07-13T02:09:49;16.80;99.90
27540;DHT22;15906;52.046;4.724;2023-07-13T02:12:14;16.80;99.90
27540;DHT22;15906;52.046;4.724;2023-07-13T02:14:40;16.80;99.90
27540;DHT22;15906;52.046;4.724;2023-07-13T02:17:05;16.80;99.90
27540;DHT22;15906;52.046;4.724;2023-07-13T02:19:31;16.70;99.90
27540;DHT22;15906;52.046;4.724;2023-07-13T02:21:57;16.70;99.90
27540;DHT22;15906;52.046;4.724;2023-07-13T02:24:22;16.70;99.90
27540;DHT22;15906;52.046;4.724;2023-07-13T02:26:48;16.60;99.90
27540;DHT22;15906;52.046;4.724;2023-07-13T02:29:14;16.60;99.90
27540;DHT22;15906;52.046;4.724;2023-07-13T02:31:39;16.50;99.90
27540;DHT22;15906;52.046;4.724;2023-07-13T02:34:05;16.60;99.90
27540;DHT22;15906;52.046;4.724;2023-07-13T02:36:31;16.50;99.90
27540;DHT22;15906;52.046;4.724;2023-07-13T02:39:00;16.40;99.90
27540;DHT22;15906;52.046;4.724;2023-07-13T02:41:26;16.40;99.90
27540;DHT22;15906;52.046;4.724;2023-07-13T02:43:51;16.40;99.90
27540;DHT22;15906;52.046;4.724;2023-07-13T02:46:17;16.40;99.90
27540;DHT22;15906;52.046;4.724;2023-07-13T02:48:45;16.40;99.90
27540;DHT22;15906;52.046;4.724;2023-07-13T02:51:11;16.30;99.90
27540;DHT22;15906;52.046;4.724;2023-07-13T02:53:37;16.30;99.90
27540;DHT22;15906;52.046;4.724;2023-07-13T02:56:03;16.30;99.90
27540;DHT22;15906;52.046;4.724;2023-07-13T02:58:30;16.30;99.90
27540;DHT22;15906;52.046;4.724;2023-07-13T03:00:56;16.20;99.90
27540;DHT22;15906;52.046;4.724;2023-07-13T03:03:23;16.10;99.90
27540;DHT22;15906;52.046;4.724;2023-07-13T03:05:58;16.10;99.90
27540;DHT22;15906;52.046;4.724;2023-07-13T03:08:26;16.10;99.90
27540;DHT22;15906;52.046;4.724;2023-07-13T03:11:01;16.20;99.90
27540;DHT22;15906;52.046;4.724;2023-07-13T03:13:27;16.20;99.90
27540;DHT22;15906;52.046;4.724;2023-07-13T03:15:53;16.30;99.90
27540;DHT22;15906;52.046;4.724;2023-07-13T03:18:18;16.20;99.90
27540;DHT22;15906;52.046;4.724;2023-07-13T03:20:44;16.20;99.90
27540;DHT22;15906;52.046;4.724;2023-07-13T03:23:09;16.30;99.90
27540;DHT22;15906;52.046;4.724;2023-07-13T03:25:35;16.20;99.90
27540;DHT22;15906;52.046;4.724;2023-07-13T03:28:00;16.20;99.90
27540;DHT22;15906;52.046;4.724;2023-07-13T03:30:26;16.20;99.90
27540;DHT22;15906;52.046;4.724;2023-07-13T03:32:51;16.20;99.90
27540;DHT22;15906;52.046;4.724;2023-07-13T03:35:17;16.10;99.90
27540;DHT22;15906;52.046;4.724;2023-07-13T03:37:43;16.20;99.90
27540;DHT22;15906;52.046;4.724;2023-07-13T03:40:09;16.10;99.90
27540;DHT22;15906;52.046;4.724;2023-07-13T03:42:35;16.00;99.90
27540;DHT22;15906;52.046;4.724;2023-07-13T03:45:01;16.10;99.90
27540;DHT22;15906;52.046;4.724;2023-07-13T03:47:26;16.10;99.90
27540;DHT22;15906;52.046;4.724;2023-07-13T03:49:52;16.20;99.90
27540;DHT22;15906;52.046;4.724;2023-07-13T03:52:18;16.10;99.90
27540;DHT22;15906;52.046;4.724;2023-07-13T03:54:44;16.20;99.90
27540;DHT22;15906;52.046;4.724;2023-07-13T03:57:10;16.10;99.90
27540;DHT22;15906;52.046;4.724;2023-07-13T03:59:36;16.20;99.90
27540;DHT22;15906;52.046;4.724;2023-07-13T04:02:02;16.30;99.90
27540;DHT22;15906;52.046;4.724;2023-07-13T04:04:29;16.20;99.90
27540;DHT22;15906;52.046;4.724;2023-07-13T04:06:57;16.20;99.90
27540;DHT22;15906;52.046;4.724;2023-07-13T04:09:24;16.10;99.90
27540;DHT22;15906;52.046;4.724;2023-07-13T04:11:49;16.20;99.90
27540;DHT22;15906;52.046;4.724;2023-07-13T04:14:15;16.20;99.90
27540;DHT22;15906;52.046;4.724;2023-07-13T04:16:41;16.20;99.90
27540;DHT22;15906;52.046;4.724;2023-07-13T04:19:08;16.20;99.90
27540;DHT22;15906;52.046;4.724;2023-07-13T04:21:35;16.30;99.90
27540;DHT22;15906;52.046;4.724;2023-07-13T04:24:01;16.30;99.90
27540;DHT22;15906;52.046;4.724;2023-07-13T04:26:28;16.30;99.90
27540;DHT22;15906;52.046;4.724;2023-07-13T04:28:54;16.40;99.90
27540;DHT22;15906;52.046;4.724;2023-07-13T04:31:20;16.40;99.90
27540;DHT22;15906;52.046;4.724;2023-07-13T04:33:46;16.40;99.90
27540;DHT22;15906;52.046;4.724;2023-07-13T04:36:11;16.50;99.90
27540;DHT22;15906;52.046;4.724;2023-07-13T04:38:37;16.40;99.90
27540;DHT22;15906;52.046;4.724;2023-07-13T04:41:05;16.60;99.90
27540;DHT22;15906;52.046;4.724;2023-07-13T04:43:32;16.60;99.90
27540;DHT22;15906;52.046;4.724;2023-07-13T04:46:03;16.70;99.90
27540;DHT22;15906;52.046;4.724;2023-07-13T04:48:29;16.80;99.90
27540;DHT22;15906;52.046;4.724;2023-07-13T04:50:56;16.80;99.90
27540;DHT22;15906;52.046;4.724;2023-07-13T04:53:22;16.70;99.90
27540;DHT22;15906;52.046;4.724;2023-07-13T04:55:48;16.80;99.90
27540;DHT22;15906;52.046;4.724;2023-07-13T04:58:13;17.10;99.90
27540;DHT22;15906;52.046;4.724;2023-07-13T05:00:39;17.00;99.90
27540;DHT22;15906;52.046;4.724;2023-07-13T05:03:05;17.10;99.90
27540;DHT22;15906;52.046;4.724;2023-07-13T05:05:31;17.10;99.90
27540;DHT22;15906;52.046;4.724;2023-07-13T05:07:56;17.10;99.90
27540;DHT22;15906;52.046;4.724;2023-07-13T05:10:22;17.10;99.90
27540;DHT22;15906;52.046;4.724;2023-07-13T05:12:48;17.10;99.90
27540;DHT22;15906;52.046;4.724;2023-07-13T05:15:14;17.10;99.90
27540;DHT22;15906;52.046;4.724;2023-07-13T05:17:40;17.20;99.90
27540;DHT22;15906;52.046;4.724;2023-07-13T05:20:07;17.20;99.90
27540;DHT22;15906;52.046;4.724;2023-07-13T05:22:33;17.30;99.90
27540;DHT22;15906;52.046;4.724;2023-07-13T05:25:04;17.30;99.90
27540;DHT22;15906;52.046;4.724;2023-07-13T05:27:29;17.30;99.90
27540;DHT22;15906;52.046;4.724;2023-07-13T05:29:56;17.50;99.90
27540;DHT22;15906;52.046;4.724;2023-07-13T05:32:21;17.50;99.90
27540;DHT22;15906;52.046;4.724;2023-07-13T05:34:47;17.50;99.90
27540;DHT22;15906;52.046;4.724;2023-07-13T05:37:12;17.60;99.90
27540;DHT22;15906;52.046;4.724;2023-07-13T05:39:38;17.60;99.90
27540;DHT22;15906;52.046;4.724;2023-07-13T05:42:04;17.90;99.90
27540;DHT22;15906;52.046;4.724;2023-07-13T05:44:30;18.00;99.90
27540;DHT22;15906;52.046;4.724;2023-07-13T05:46:55;18.00;99.90
27540;DHT22;15906;52.046;4.724;2023-07-13T05:49:22;18.20;99.90
27540;DHT22;15906;52.046;4.724;2023-07-13T05:51:48;18.20;99.90
27540;DHT22;15906;52.046;4.724;2023-07-13T05:54:14;18.20;99.90
27540;DHT22;15906;52.046;4.724;2023-07-13T05:56:39;18.20;99.90
27540;DHT22;15906;52.046;4.724;2023-07-13T05:59:05;18.20;99.90
27540;DHT22;15906;52.046;4.724;2023-07-13T06:01:31;18.10;99.90
27540;DHT22;15906;52.046;4.724;2023-07-13T06:03:56;18.10;99.90
27540;DHT22;15906;52.046;4.724;2023-07-13T06:06:22;18.10;99.90
27540;DHT22;15906;52.046;4.724;2023-07-13T06:08:47;18.10;99.90
27540;DHT22;15906;52.046;4.724;2023-07-13T06:11:16;18.10;99.90
27540;DHT22;15906;52.046;4.724;2023-07-13T06:13:42;18.10;99.90
27540;DHT22;15906;52.046;4.724;2023-07-13T06:16:08;18.10;99.90
27540;DHT22;15906;52.046;4.724;2023-07-13T06:18:35;18.10;99.90
27540;DHT22;15906;52.046;4.724;2023-07-13T06:23:34;18.10;99.90
27540;DHT22;15906;52.046;4.724;2023-07-13T06:25:59;18.10;99.90
27540;DHT22;15906;52.046;4.724;2023-07-13T06:28:25;17.90;99.90
27540;DHT22;15906;52.046;4.724;2023-07-13T06:30:50;17.80;99.90
27540;DHT22;15906;52.046;4.724;2023-07-13T06:33:16;17.70;99.90
27540;DHT22;15906;52.046;4.724;2023-07-13T06:35:42;17.50;99.90
27540;DHT22;15906;52.046;4.724;2023-07-13T06:38:08;17.20;99.90
27540;DHT22;15906;52.046;4.724;2023-07-13T06:40:33;16.90;99.90
27540;DHT22;15906;52.046;4.724;2023-07-13T06:43:02;16.70;99.90
27540;DHT22;15906;52.046;4.724;2023-07-13T06:45:27;16.50;99.90
27540;DHT22;15906;52.046;4.724;2023-07-13T06:47:53;16.40;99.90
27540;DHT22;15906;52.046;4.724;2023-07-13T06:50:18;16.40;99.90
27540;DHT22;15906;52.046;4.724;2023-07-13T06:52:44;16.30;99.90
27540;DHT22;15906;52.046;4.724;2023-07-13T06:55:09;16.30;99.90
27540;DHT22;15906;52.046;4.724;2023-07-13T06:57:35;16.30;99.90
27540;DHT22;15906;52.046;4.724;2023-07-13T07:00:00;16.40;99.90
27540;DHT22;15906;52.046;4.724;2023-07-13T07:02:26;16.40;99.90
27540;DHT22;15906;52.046;4.724;2023-07-13T07:04:52;16.60;99.90
27540;DHT22;15906;52.046;4.724;2023-07-13T07:07:19;16.70;99.90
27540;DHT22;15906;52.046;4.724;2023-07-13T07:09:45;16.60;99.90
27540;DHT22;15906;52.046;4.724;2023-07-13T07:12:10;17.00;99.90
27540;DHT22;15906;52.046;4.724;2023-07-13T07:14:36;17.10;99.90
27540;DHT22;15906;52.046;4.724;2023-07-13T07:17:01;17.20;99.90
27540;DHT22;15906;52.046;4.724;2023-07-13T07:19:29;17.50;99.90
27540;DHT22;15906;52.046;4.724;2023-07-13T07:21:55;17.80;99.90
27540;DHT22;15906;52.046;4.724;2023-07-13T07:24:20;18.10;99.90
27540;DHT22;15906;52.046;4.724;2023-07-13T07:26:46;18.40;99.90
27540;DHT22;15906;52.046;4.724;2023-07-13T07:29:11;18.90;99.90
27540;DHT22;15906;52.046;4.724;2023-07-13T07:31:37;19.40;99.90
27540;DHT22;15906;52.046;4.724;2023-07-13T07:34:03;19.50;99.90
27540;DHT22;15906;52.046;4.724;2023-07-13T07:36:28;19.40;99.90
27540;DHT22;15906;52.046;4.724;2023-07-13T07:38:54;19.20;99.90
27540;DHT22;15906;52.046;4.724;2023-07-13T07:41:19;19.10;99.90
27540;DHT22;15906;52.046;4.724;2023-07-13T07:43:45;19.00;99.90
27540;DHT22;15906;52.046;4.724;2023-07-13T07:46:10;18.80;99.90
27540;DHT22;15906;52.046;4.724;2023-07-13T07:48:36;18.70;99.90
27540;DHT22;15906;52.046;4.724;2023-07-13T07:51:01;18.50;99.90
27540;DHT22;15906;52.046;4.724;2023-07-13T07:53:27;18.30;99.90
27540;DHT22;15906;52.046;4.724;2023-07-13T07:55:52;18.20;99.90
27540;DHT22;15906;52.046;4.724;2023-07-13T07:58:18;18.30;99.90
27540;DHT22;15906;52.046;4.724;2023-07-13T08:00:43;18.60;99.90
27540;DHT22;15906;52.046;4.724;2023-07-13T08:03:09;18.90;99.90
27540;DHT22;15906;52.046;4.724;2023-07-13T08:05:36;19.20;99.90
27540;DHT22;15906;52.046;4.724;2023-07-13T08:08:02;19.70;99.90
27540;DHT22;15906;52.046;4.724;2023-07-13T08:10:28;20.10;99.90
27540;DHT22;15906;52.046;4.724;2023-07-13T08:12:53;20.10;99.90
27540;DHT22;15906;52.046;4.724;2023-07-13T08:15:19;19.90;99.90
27540;DHT22;15906;52.046;4.724;2023-07-13T08:17:49;19.40;99.90
27540;DHT22;15906;52.046;4.724;2023-07-13T08:20:15;19.00;99.90
27540;DHT22;15906;52.046;4.724;2023-07-13T08:22:40;18.70;99.90
27540;DHT22;15906;52.046;4.724;2023-07-13T08:25:06;18.80;99.90
27540;DHT22;15906;52.046;4.724;2023-07-13T08:27:32;19.10;99.90
27540;DHT22;15906;52.046;4.724;2023-07-13T08:29:58;19.30;99.90
27540;DHT22;15906;52.046;4.724;2023-07-13T08:32:23;19.50;99.90
27540;DHT22;15906;52.046;4.724;2023-07-13T08:34:50;20.00;99.90
27540;DHT22;15906;52.046;4.724;2023-07-13T08:37:16;20.40;99.90
27540;DHT22;15906;52.046;4.724;2023-07-13T08:39:42;20.60;99.90
27540;DHT22;15906;52.046;4.724;2023-07-13T08:44:57;21.10;99.90
27540;DHT22;15906;52.046;4.724;2023-07-13T08:47:28;21.40;99.90
27540;DHT22;15906;52.046;4.724;2023-07-13T08:49:56;21.10;99.90
27540;DHT22;15906;52.046;4.724;2023-07-13T08:52:34;20.70;99.90
27540;DHT22;15906;52.046;4.724;2023-07-13T08:55:22;20.40;99.90
27540;DHT22;15906;52.046;4.724;2023-07-13T08:57:59;19.80;99.90
27540;DHT22;15906;52.046;4.724;2023-07-13T09:00:42;19.60;99.90
27540;DHT22;15906;52.046;4.724;2023-07-13T09:03:19;19.30;99.90
27540;DHT22;15906;52.046;4.724;2023-07-13T09:05:49;19.00;99.90
27540;DHT22;15906;52.046;4.724;2023-07-13T09:10:53;18.80;99.90
27540;DHT22;15906;52.046;4.724;2023-07-13T09:13:32;18.80;99.90
27540;DHT22;15906;52.046;4.724;2023-07-13T09:15:59;18.70;99.90
27540;DHT22;15906;52.046;4.724;2023-07-13T09:18:41;18.70;99.90
27540;DHT22;15906;52.046;4.724;2023-07-13T09:21:17;18.80;99.90
27540;DHT22;15906;52.046;4.724;2023-07-13T09:23:43;19.00;99.90
27540;DHT22;15906;52.046;4.724;2023-07-13T09:26:20;19.10;99.90
27540;DHT22;15906;52.046;4.724;2023-07-13T09:28:49;19.40;99.90
27540;DHT22;15906;52.046;4.724;2023-07-13T09:31:41;19.80;99.90
27540;DHT22;15906;52.046;4.724;2023-07-13T09:34:10;20.10;99.90
27540;DHT22;15906;52.046;4.724;2023-07-13T09:36:37;20.30;99.90
27540;DHT22;15906;52.046;4.724;2023-07-13T09:41:41;20.00;99.90
27540;DHT22;15906;52.046;4.724;2023-07-13T09:44:17;19.80;99.90
27540;DHT22;15906;52.046;4.724;2023-07-13T09:46:51;19.60;99.90
27540;DHT22;15906;52.046;4.724;2023-07-13T09:49:18;19.50;99.90
27540;DHT22;15906;52.046;4.724;2023-07-13T09:51:43;19.70;99.90
27540;DHT22;15906;52.046;4.724;2023-07-13T09:54:21;19.70;99.90
27540;DHT22;15906;52.046;4.724;2023-07-13T09:56:47;19.70;99.90
27540;DHT22;15906;52.046;4.724;2023-07-13T09:59:20;19.60;99.90
27540;DHT22;15906;52.046;4.724;2023-07-13T10:01:46;19.70;99.90
27540;DHT22;15906;52.046;4.724;2023-07-13T10:04:17;20.00;99.90
27540;DHT22;15906;52.046;4.724;2023-07-13T10:06:44;20.60;99.90
27540;DHT22;15906;52.046;4.724;2023-07-13T10:09:14;20.70;99.90
27540;DHT22;15906;52.046;4.724;2023-07-13T10:11:40;20.70;99.90
27540;DHT22;15906;52.046;4.724;2023-07-13T10:14:16;20.60;99.90
27540;DHT22;15906;52.046;4.724;2023-07-13T10:16:44;20.80;99.90
27540;DHT22;15906;52.046;4.724;2023-07-13T10:19:19;21.20;99.90
27540;DHT22;15906;52.046;4.724;2023-07-13T10:21:58;21.70;99.90
27540;DHT22;15906;52.046;4.724;2023-07-13T10:24:33;22.00;99.90
27540;DHT22;15906;52.046;4.724;2023-07-13T10:27:21;21.80;99.90
27540;DHT22;15906;52.046;4.724;2023-07-13T10:32:35;20.80;99.90
27540;DHT22;15906;52.046;4.724;2023-07-13T10:35:01;20.50;99.90
27540;DHT22;15906;52.046;4.724;2023-07-13T10:37:31;20.40;99.90
27540;DHT22;15906;52.046;4.724;2023-07-13T10:40:03;20.30;99.90
27540;DHT22;15906;52.046;4.724;2023-07-13T10:42:39;20.20;99.90
27540;DHT22;15906;52.046;4.724;2023-07-13T10:45:19;20.40;99.90
27540;DHT22;15906;52.046;4.724;2023-07-13T10:47:45;20.60;99.90
27540;DHT22;15906;52.046;4.724;2023-07-13T10:50:23;20.80;99.90
27540;DHT22;15906;52.046;4.724;2023-07-13T10:52:54;20.80;99.90
27540;DHT22;15906;52.046;4.724;2023-07-13T10:58:18;20.50;99.90
27540;DHT22;15906;52.046;4.724;2023-07-13T11:03:37;20.20;99.90
27540;DHT22;15906;52.046;4.724;2023-07-13T11:06:10;20.60;99.90
27540;DHT22;15906;52.046;4.724;2023-07-13T11:11:35;21.30;99.90
27540;DHT22;15906;52.046;4.724;2023-07-13T11:14:03;21.40;99.90
27540;DHT22;15906;52.046;4.724;2023-07-13T11:16:42;21.80;99.90
27540;DHT22;15906;52.046;4.724;2023-07-13T11:19:26;22.40;99.90
27540;DHT22;15906;52.046;4.724;2023-07-13T11:24:55;22.40;99.90
27540;DHT22;15906;52.046;4.724;2023-07-13T11:27:35;22.40;99.90
27540;DHT22;15906;52.046;4.724;2023-07-13T11:35:46;23.20;99.90
27540;DHT22;15906;52.046;4.724;2023-07-13T11:38:23;23.40;99.90
27540;DHT22;15906;52.046;4.724;2023-07-13T11:40:55;23.40;99.90
27540;DHT22;15906;52.046;4.724;2023-07-13T11:43:21;23.70;99.90
27540;DHT22;15906;52.046;4.724;2023-07-13T11:45:49;23.70;99.90
27540;DHT22;15906;52.046;4.724;2023-07-13T11:48:29;23.70;99.90
27540;DHT22;15906;52.046;4.724;2023-07-13T11:51:02;23.70;99.90
27540;DHT22;15906;52.046;4.724;2023-07-13T11:53:39;23.40;99.90
27540;DHT22;15906;52.046;4.724;2023-07-13T11:56:06;23.20;99.90
27540;DHT22;15906;52.046;4.724;2023-07-13T11:58:32;23.00;99.90
27540;DHT22;15906;52.046;4.724;2023-07-13T12:01:01;23.20;99.90
27540;DHT22;15906;52.046;4.724;2023-07-13T12:03:30;22.90;99.90
27540;DHT22;15906;52.046;4.724;2023-07-13T12:05:59;22.80;99.90
27540;DHT22;15906;52.046;4.724;2023-07-13T12:08:26;23.00;99.90
27540;DHT22;15906;52.046;4.724;2023-07-13T12:11:00;23.20;99.90
27540;DHT22;15906;52.046;4.724;2023-07-13T12:13:36;23.40;99.90
27540;DHT22;15906;52.046;4.724;2023-07-13T12:16:01;23.50;99.90
27540;DHT22;15906;52.046;4.724;2023-07-13T12:18:31;23.60;99.90
27540;DHT22;15906;52.046;4.724;2023-07-13T12:20:59;23.60;99.90
27540;DHT22;15906;52.046;4.724;2023-07-13T12:23:27;23.60;99.90
27540;DHT22;15906;52.046;4.724;2023-07-13T12:25:53;23.60;99.90
27540;DHT22;15906;52.046;4.724;2023-07-13T12:28:21;23.40;99.90
27540;DHT22;15906;52.046;4.724;2023-07-13T12:30:48;23.50;99.90
27540;DHT22;15906;52.046;4.724;2023-07-13T12:33:16;23.50;99.90
27540;DHT22;15906;52.046;4.724;2023-07-13T12:35:47;23.50;99.90
27540;DHT22;15906;52.046;4.724;2023-07-13T12:38:13;23.40;99.90
27540;DHT22;15906;52.046;4.724;2023-07-13T12:40:39;23.40;99.90
27540;DHT22;15906;52.046;4.724;2023-07-13T12:43:13;23.50;99.90
27540;DHT22;15906;52.046;4.724;2023-07-13T12:45:55;23.70;99.90
27540;DHT22;15906;52.046;4.724;2023-07-13T12:48:21;23.90;99.90
27540;DHT22;15906;52.046;4.724;2023-07-13T12:50:48;24.10;99.90
27540;DHT22;15906;52.046;4.724;2023-07-13T12:53:20;24.10;99.80
27540;DHT22;15906;52.046;4.724;2023-07-13T12:55:53;24.30;99.90
27540;DHT22;15906;52.046;4.724;2023-07-13T12:58:27;24.20;99.60
27540;DHT22;15906;52.046;4.724;2023-07-13T13:00:55;23.90;99.90
27540;DHT22;15906;52.046;4.724;2023-07-13T13:03:35;23.80;99.90
27540;DHT22;15906;52.046;4.724;2023-07-13T13:06:06;23.90;99.80
27540;DHT22;15906;52.046;4.724;2023-07-13T13:08:34;23.90;99.30
27540;DHT22;15906;52.046;4.724;2023-07-13T13:11:01;23.70;99.90
27540;DHT22;15906;52.046;4.724;2023-07-13T13:13:26;23.90;99.90
27540;DHT22;15906;52.046;4.724;2023-07-13T13:15:52;24.00;99.90
27540;DHT22;15906;52.046;4.724;2023-07-13T13:18:20;24.30;99.90
27540;DHT22;15906;52.046;4.724;2023-07-13T13:20:47;24.40;97.90
27540;DHT22;15906;52.046;4.724;2023-07-13T13:23:19;24.40;99.90
27540;DHT22;15906;52.046;4.724;2023-07-13T13:25:50;24.50;99.90
27540;DHT22;15906;52.046;4.724;2023-07-13T13:28:18;24.30;99.70
27540;DHT22;15906;52.046;4.724;2023-07-13T13:30:45;24.10;99.90
27540;DHT22;15906;52.046;4.724;2023-07-13T13:33:14;23.90;99.20
27540;DHT22;15906;52.046;4.724;2023-07-13T13:35:41;23.70;99.90
27540;DHT22;15906;52.046;4.724;2023-07-13T13:38:14;23.30;99.90
27540;DHT22;15906;52.046;4.724;2023-07-13T13:40:44;23.10;99.80
27540;DHT22;15906;52.046;4.724;2023-07-13T13:43:23;22.90;99.90
27540;DHT22;15906;52.046;4.724;2023-07-13T13:45:54;22.70;99.90
27540;DHT22;15906;52.046;4.724;2023-07-13T13:48:32;22.70;99.90
27540;DHT22;15906;52.046;4.724;2023-07-13T13:50:59;22.60;99.90
27540;DHT22;15906;52.046;4.724;2023-07-13T13:53:26;22.60;99.90
27540;DHT22;15906;52.046;4.724;2023-07-13T13:55:52;22.60;99.90
27540;DHT22;15906;52.046;4.724;2023-07-13T13:58:18;22.40;99.90
27540;DHT22;15906;52.046;4.724;2023-07-13T14:00:44;22.30;99.90
27540;DHT22;15906;52.046;4.724;2023-07-13T14:03:20;22.20;99.90
27540;DHT22;15906;52.046;4.724;2023-07-13T14:05:48;22.10;99.90
27540;DHT22;15906;52.046;4.724;2023-07-13T14:08:19;22.30;99.90
27540;DHT22;15906;52.046;4.724;2023-07-13T14:10:49;22.60;99.90
27540;DHT22;15906;52.046;4.724;2023-07-13T14:13:37;22.70;99.90
27540;DHT22;15906;52.046;4.724;2023-07-13T14:16:14;22.80;99.80
27540;DHT22;15906;52.046;4.724;2023-07-13T14:18:42;22.50;99.90
27540;DHT22;15906;52.046;4.724;2023-07-13T14:21:14;22.60;99.90
27540;DHT22;15906;52.046;4.724;2023-07-13T14:23:41;22.40;99.90
27540;DHT22;15906;52.046;4.724;2023-07-13T14:26:15;22.40;99.90
27540;DHT22;15906;52.046;4.724;2023-07-13T14:28:45;22.50;99.90
27540;DHT22;15906;52.046;4.724;2023-07-13T14:31:12;22.70;99.90
27540;DHT22;15906;52.046;4.724;2023-07-13T14:33:38;22.90;99.90
27540;DHT22;15906;52.046;4.724;2023-07-13T14:36:21;23.10;99.90
27540;DHT22;15906;52.046;4.724;2023-07-13T14:38:48;23.00;99.90
27540;DHT22;15906;52.046;4.724;2023-07-13T14:41:27;22.90;99.90
27540;DHT22;15906;52.046;4.724;2023-07-13T14:43:53;22.80;99.90
27540;DHT22;15906;52.046;4.724;2023-07-13T14:46:30;22.80;99.90
27540;DHT22;15906;52.046;4.724;2023-07-13T14:49:04;22.70;99.90
27540;DHT22;15906;52.046;4.724;2023-07-13T14:51:31;22.50;99.90
27540;DHT22;15906;52.046;4.724;2023-07-13T14:54:02;22.50;99.90
27540;DHT22;15906;52.046;4.724;2023-07-13T14:56:28;22.70;99.90
27540;DHT22;15906;52.046;4.724;2023-07-13T14:58:54;22.70;99.70
27540;DHT22;15906;52.046;4.724;2023-07-13T15:01:20;22.70;99.50
27540;DHT22;15906;52.046;4.724;2023-07-13T15:03:49;22.60;99.70
27540;DHT22;15906;52.046;4.724;2023-07-13T15:06:15;22.40;99.90
27540;DHT22;15906;52.046;4.724;2023-07-13T15:08:41;22.40;99.90
27540;DHT22;15906;52.046;4.724;2023-07-13T15:11:08;22.40;99.90
27540;DHT22;15906;52.046;4.724;2023-07-13T15:13:37;22.40;99.90
27540;DHT22;15906;52.046;4.724;2023-07-13T15:16:03;22.30;99.90
27540;DHT22;15906;52.046;4.724;2023-07-13T15:18:30;22.30;99.90
27540;DHT22;15906;52.046;4.724;2023-07-13T15:20:56;22.50;99.90
27540;DHT22;15906;52.046;4.724;2023-07-13T15:23:23;22.30;99.90
27540;DHT22;15906;52.046;4.724;2023-07-13T15:25:49;22.30;99.90
27540;DHT22;15906;52.046;4.724;2023-07-13T15:28:15;22.20;99.90
27540;DHT22;15906;52.046;4.724;2023-07-13T15:30:43;22.20;99.90
27540;DHT22;15906;52.046;4.724;2023-07-13T15:33:21;22.00;99.90
27540;DHT22;15906;52.046;4.724;2023-07-13T15:35:48;21.80;99.90
27540;DHT22;15906;52.046;4.724;2023-07-13T15:38:20;21.90;99.90
27540;DHT22;15906;52.046;4.724;2023-07-13T15:40:47;21.90;99.90
27540;DHT22;15906;52.046;4.724;2023-07-13T15:43:14;22.00;99.90
27540;DHT22;15906;52.046;4.724;2023-07-13T15:45:41;22.00;99.90
27540;DHT22;15906;52.046;4.724;2023-07-13T15:48:22;22.00;99.90
27540;DHT22;15906;52.046;4.724;2023-07-13T15:50:50;21.80;99.90
27540;DHT22;15906;52.046;4.724;2023-07-13T15:53:23;21.80;99.90
27540;DHT22;15906;52.046;4.724;2023-07-13T15:55:49;21.90;99.90
27540;DHT22;15906;52.046;4.724;2023-07-13T15:58:15;22.00;99.90
27540;DHT22;15906;52.046;4.724;2023-07-13T16:00:42;22.10;99.90
27540;DHT22;15906;52.046;4.724;2023-07-13T16:03:08;22.10;99.90
27540;DHT22;15906;52.046;4.724;2023-07-13T16:05:34;22.00;99.90
27540;DHT22;15906;52.046;4.724;2023-07-13T16:08:00;21.80;99.90
27540;DHT22;15906;52.046;4.724;2023-07-13T16:10:35;21.80;99.90